IBE04KC LEMD-LEVX
Flight info
| Callsign | IBE04KC |
|---|---|
| Flight time | 0h 47m |
| Altitude | 29000 |
| Route | ZMR N733 DESAT/N0452F300 DCT BARKO |
| Aircraft | A320/M-SDE3FGHIRWY/LB1 |
Departure
| Time | 2026-04-15 12:23 |
|---|---|
| Airport | Adolfo Suárez Madrid–Barajas Airport (LEMD) |
Arrival
| Time | 2026-04-15 13:11 |
|---|---|
| Airport | Vigo Airport (LEVX) |
| Time | Latitude | Longitude | Altitude | Speed | Heading |
|---|---|---|---|---|---|
| 2026-04-15 11:39 | 40.49399 | -3.58968 | 2022 ft | 0 kts | 271° |
| 2026-04-15 12:13 | 40.49400 | -3.58953 | 2033 ft | 2 kts | 269° |
| 2026-04-15 12:13 | 40.49400 | -3.58931 | 2027 ft | 2 kts | 266° |
| 2026-04-15 12:14 | 40.49401 | -3.58909 | 2033 ft | 2 kts | 258° |
| 2026-04-15 12:14 | 40.49407 | -3.58889 | 2032 ft | 2 kts | 211° |
| 2026-04-15 12:14 | 40.49419 | -3.58883 | 2032 ft | 1 kts | 180° |
| 2026-04-15 12:14 | 40.49420 | -3.58883 | 2032 ft | 0 kts | 179° |
| 2026-04-15 12:18 | 40.49395 | -3.58883 | 2032 ft | 8 kts | 179° |
| 2026-04-15 12:18 | 40.49348 | -3.58882 | 2032 ft | 5 kts | 180° |
| 2026-04-15 12:18 | 40.49271 | -3.58882 | 2027 ft | 16 kts | 178° |
| 2026-04-15 12:19 | 40.49241 | -3.58792 | 2026 ft | 8 kts | 89° |
| 2026-04-15 12:19 | 40.49240 | -3.58696 | 2026 ft | 17 kts | 89° |
| 2026-04-15 12:19 | 40.49235 | -3.58553 | 2017 ft | 17 kts | 88° |
| 2026-04-15 12:19 | 40.49243 | -3.58379 | 2015 ft | 21 kts | 88° |
| 2026-04-15 12:20 | 40.49242 | -3.58162 | 2006 ft | 26 kts | 89° |
| 2026-04-15 12:20 | 40.49243 | -3.57901 | 1998 ft | 30 kts | 89° |
| 2026-04-15 12:20 | 40.49245 | -3.57672 | 1989 ft | 19 kts | 88° |
| 2026-04-15 12:20 | 40.49258 | -3.57584 | 1987 ft | 0 kts | 63° |
| 2026-04-15 12:21 | 40.49261 | -3.57577 | 1987 ft | 5 kts | 62° |
| 2026-04-15 12:21 | 40.49278 | -3.57529 | 1986 ft | 7 kts | 71° |
| 2026-04-15 12:22 | 40.49283 | -3.57463 | 1983 ft | 8 kts | 77° |
| 2026-04-15 12:22 | 40.49393 | -3.57452 | 1983 ft | 42 kts | 360° |
| 2026-04-15 12:22 | 40.49942 | -3.57455 | 1987 ft | 112 kts | 360° |
| 2026-04-15 12:22 | 40.50912 | -3.57466 | 1997 ft | 165 kts | 359° |
| 2026-04-15 12:23 | 40.52126 | -3.57470 | 2439 ft | 175 kts | 360° |
| 2026-04-15 12:23 | 40.53351 | -3.57445 | 3140 ft | 178 kts | 359° |
| 2026-04-15 12:23 | 40.54600 | -3.57439 | 3834 ft | 179 kts | 357° |
| 2026-04-15 12:23 | 40.55802 | -3.57762 | 4480 ft | 177 kts | 324° |
| 2026-04-15 12:24 | 40.56594 | -3.58945 | 5102 ft | 173 kts | 292° |
| 2026-04-15 12:24 | 40.57169 | -3.60400 | 5523 ft | 192 kts | 307° |
| 2026-04-15 12:24 | 40.57827 | -3.61257 | 5672 ft | 210 kts | 316° |
| 2026-04-15 12:24 | 40.58968 | -3.62585 | 6229 ft | 224 kts | 318° |
| 2026-04-15 12:25 | 40.60181 | -3.63884 | 7073 ft | 226 kts | 321° |
| 2026-04-15 12:25 | 40.61417 | -3.65173 | 7923 ft | 227 kts | 321° |
| 2026-04-15 12:25 | 40.62655 | -3.66459 | 8724 ft | 228 kts | 324° |
| 2026-04-15 12:25 | 40.64088 | -3.67389 | 9487 ft | 232 kts | 343° |
| 2026-04-15 12:26 | 40.65717 | -3.67683 | 10127 ft | 248 kts | 0° |
| 2026-04-15 12:26 | 40.67519 | -3.67450 | 10456 ft | 272 kts | 4° |
| 2026-04-15 12:26 | 40.69477 | -3.67206 | 10725 ft | 295 kts | 358° |
| 2026-04-15 12:26 | 40.71544 | -3.67732 | 10968 ft | 315 kts | 335° |
| 2026-04-15 12:27 | 40.73337 | -3.69515 | 11237 ft | 334 kts | 309° |
| 2026-04-15 12:27 | 40.74749 | -3.71996 | 11844 ft | 343 kts | 306° |
| 2026-04-15 12:27 | 40.76137 | -3.74583 | 12574 ft | 348 kts | 305° |
| 2026-04-15 12:27 | 40.77516 | -3.77218 | 13356 ft | 351 kts | 304° |
| 2026-04-15 12:28 | 40.78903 | -3.79885 | 14120 ft | 353 kts | 304° |
| 2026-04-15 12:28 | 40.80302 | -3.82562 | 14773 ft | 356 kts | 305° |
| 2026-04-15 12:28 | 40.81730 | -3.85264 | 15425 ft | 360 kts | 305° |
| 2026-04-15 12:28 | 40.83181 | -3.87981 | 16111 ft | 364 kts | 305° |
| 2026-04-15 12:29 | 40.84652 | -3.90717 | 16752 ft | 367 kts | 305° |
| 2026-04-15 12:29 | 40.86140 | -3.93481 | 17391 ft | 371 kts | 306° |
| 2026-04-15 12:29 | 40.87640 | -3.96269 | 18039 ft | 374 kts | 305° |
| 2026-04-15 12:29 | 40.89154 | -3.99089 | 18669 ft | 377 kts | 305° |
| 2026-04-15 12:30 | 40.90674 | -4.01931 | 19233 ft | 380 kts | 305° |
| 2026-04-15 12:30 | 40.92206 | -4.04802 | 19832 ft | 383 kts | 304° |
| 2026-04-15 12:30 | 40.93745 | -4.07688 | 20396 ft | 386 kts | 304° |
| 2026-04-15 12:30 | 40.95295 | -4.10597 | 20950 ft | 388 kts | 304° |
| 2026-04-15 12:31 | 40.96855 | -4.13529 | 21495 ft | 391 kts | 303° |
| 2026-04-15 12:31 | 40.98424 | -4.16482 | 22024 ft | 393 kts | 303° |
| 2026-04-15 12:31 | 41.00002 | -4.19455 | 22532 ft | 396 kts | 303° |
| 2026-04-15 12:31 | 41.01546 | -4.22484 | 23024 ft | 398 kts | 298° |
| 2026-04-15 12:32 | 41.02808 | -4.25749 | 23514 ft | 399 kts | 294° |
| 2026-04-15 12:32 | 41.04035 | -4.29057 | 23965 ft | 401 kts | 294° |
| 2026-04-15 12:32 | 41.05253 | -4.32341 | 24359 ft | 403 kts | 294° |
| 2026-04-15 12:32 | 41.06492 | -4.35681 | 24748 ft | 405 kts | 294° |
| 2026-04-15 12:33 | 41.07736 | -4.39040 | 25137 ft | 407 kts | 294° |
| 2026-04-15 12:33 | 41.08984 | -4.42411 | 25503 ft | 408 kts | 294° |
| 2026-04-15 12:33 | 41.10239 | -4.45799 | 25881 ft | 410 kts | 294° |
| 2026-04-15 12:33 | 41.11496 | -4.49199 | 26248 ft | 412 kts | 294° |
| 2026-04-15 12:34 | 41.12756 | -4.52615 | 26611 ft | 413 kts | 294° |
| 2026-04-15 12:34 | 41.14019 | -4.56042 | 26971 ft | 414 kts | 293° |
| 2026-04-15 12:34 | 41.15287 | -4.59486 | 27311 ft | 416 kts | 293° |
| 2026-04-15 12:34 | 41.16558 | -4.62945 | 27640 ft | 418 kts | 293° |
| 2026-04-15 12:35 | 41.17835 | -4.66410 | 27967 ft | 419 kts | 293° |
| 2026-04-15 12:35 | 41.19115 | -4.69892 | 28292 ft | 421 kts | 293° |
| 2026-04-15 12:35 | 41.20396 | -4.73393 | 28596 ft | 422 kts | 292° |
| 2026-04-15 12:35 | 41.21678 | -4.76906 | 28888 ft | 423 kts | 292° |
| 2026-04-15 12:36 | 41.22963 | -4.80429 | 29167 ft | 425 kts | 292° |
| 2026-04-15 12:36 | 41.24252 | -4.83968 | 29431 ft | 426 kts | 292° |
| 2026-04-15 12:36 | 41.25542 | -4.87512 | 29723 ft | 426 kts | 292° |
| 2026-04-15 12:36 | 41.26829 | -4.91052 | 30101 ft | 424 kts | 292° |
| 2026-04-15 12:37 | 41.28111 | -4.94577 | 30233 ft | 422 kts | 292° |
| 2026-04-15 12:37 | 41.30673 | -5.01628 | 30252 ft | 425 kts | 292° |
| 2026-04-15 12:38 | 41.33241 | -5.08707 | 30257 ft | 425 kts | 292° |
| 2026-04-15 12:38 | 41.35799 | -5.15794 | 30255 ft | 425 kts | 292° |
| 2026-04-15 12:39 | 41.38353 | -5.22882 | 30258 ft | 425 kts | 292° |
| 2026-04-15 12:39 | 41.40905 | -5.29975 | 30249 ft | 424 kts | 291° |
| 2026-04-15 12:40 | 41.43449 | -5.37069 | 30247 ft | 424 kts | 291° |
| 2026-04-15 12:40 | 41.45984 | -5.44166 | 30244 ft | 424 kts | 291° |
| 2026-04-15 12:41 | 41.48514 | -5.51267 | 30244 ft | 424 kts | 291° |
| 2026-04-15 12:41 | 41.51023 | -5.58323 | 30237 ft | 424 kts | 291° |
| 2026-04-15 12:42 | 41.53649 | -5.65373 | 30238 ft | 426 kts | 295° |
| 2026-04-15 12:42 | 41.56925 | -5.72017 | 30239 ft | 430 kts | 301° |
| 2026-04-15 12:43 | 41.60499 | -5.78435 | 30235 ft | 431 kts | 301° |
| 2026-04-15 12:43 | 41.64016 | -5.84902 | 30235 ft | 430 kts | 300° |
| 2026-04-15 12:44 | 41.67436 | -5.91458 | 30237 ft | 430 kts | 300° |
| 2026-04-15 12:44 | 41.70822 | -5.98049 | 30234 ft | 430 kts | 299° |
| 2026-04-15 12:45 | 41.74219 | -6.04630 | 30237 ft | 430 kts | 300° |
| 2026-04-15 12:45 | 41.77633 | -6.11206 | 30234 ft | 430 kts | 300° |
| 2026-04-15 12:46 | 41.81038 | -6.17793 | 30230 ft | 430 kts | 300° |
| 2026-04-15 12:46 | 41.84434 | -6.24390 | 30232 ft | 430 kts | 299° |
| 2026-04-15 12:47 | 41.87827 | -6.30988 | 30229 ft | 430 kts | 299° |
| 2026-04-15 12:47 | 41.91221 | -6.37589 | 30228 ft | 429 kts | 299° |
| 2026-04-15 12:48 | 41.94598 | -6.44206 | 30221 ft | 429 kts | 299° |
| 2026-04-15 12:48 | 41.97976 | -6.50828 | 30226 ft | 430 kts | 299° |
| 2026-04-15 12:49 | 42.01351 | -6.57456 | 30223 ft | 430 kts | 299° |
| 2026-04-15 12:49 | 42.04725 | -6.64092 | 30217 ft | 430 kts | 299° |
| 2026-04-15 12:50 | 42.08098 | -6.70734 | 30225 ft | 430 kts | 299° |
| 2026-04-15 12:50 | 42.11464 | -6.77388 | 30223 ft | 430 kts | 299° |
| 2026-04-15 12:51 | 42.14807 | -6.84015 | 30227 ft | 431 kts | 299° |
| 2026-04-15 12:51 | 42.18169 | -6.90702 | 30241 ft | 431 kts | 299° |
| 2026-04-15 12:51 | 42.19668 | -6.94129 | 30182 ft | 419 kts | 291° |
| 2026-04-15 12:52 | 42.20712 | -6.97731 | 29986 ft | 408 kts | 283° |
| 2026-04-15 12:52 | 42.21439 | -7.01416 | 29713 ft | 406 kts | 282° |
| 2026-04-15 12:52 | 42.22154 | -7.05096 | 29432 ft | 406 kts | 282° |
| 2026-04-15 12:52 | 42.22870 | -7.08782 | 28839 ft | 406 kts | 282° |
| 2026-04-15 12:53 | 42.23585 | -7.12452 | 28174 ft | 403 kts | 282° |
| 2026-04-15 12:53 | 42.24294 | -7.16088 | 27451 ft | 400 kts | 282° |
| 2026-04-15 12:53 | 42.24997 | -7.19704 | 26757 ft | 397 kts | 282° |
| 2026-04-15 12:53 | 42.25694 | -7.23292 | 26090 ft | 393 kts | 282° |
| 2026-04-15 12:54 | 42.26385 | -7.26854 | 25370 ft | 391 kts | 283° |
| 2026-04-15 12:54 | 42.27071 | -7.30404 | 24599 ft | 391 kts | 283° |
| 2026-04-15 12:54 | 42.27756 | -7.33964 | 23823 ft | 392 kts | 283° |
| 2026-04-15 12:54 | 42.28441 | -7.37533 | 22904 ft | 393 kts | 283° |
| 2026-04-15 12:55 | 42.29127 | -7.41111 | 22045 ft | 393 kts | 283° |
| 2026-04-15 12:55 | 42.29811 | -7.44670 | 21322 ft | 390 kts | 283° |
| 2026-04-15 12:55 | 42.30489 | -7.48201 | 20631 ft | 387 kts | 283° |
| 2026-04-15 12:55 | 42.31163 | -7.51713 | 19953 ft | 384 kts | 283° |
| 2026-04-15 12:56 | 42.31829 | -7.55194 | 19310 ft | 381 kts | 282° |
| 2026-04-15 12:56 | 42.32487 | -7.58644 | 18729 ft | 377 kts | 282° |
| 2026-04-15 12:56 | 42.33138 | -7.62061 | 18093 ft | 374 kts | 282° |
| 2026-04-15 12:56 | 42.33780 | -7.65456 | 17446 ft | 372 kts | 282° |
| 2026-04-15 12:57 | 42.34416 | -7.68830 | 16800 ft | 370 kts | 282° |
| 2026-04-15 12:57 | 42.35039 | -7.72144 | 16182 ft | 368 kts | 282° |
| 2026-04-15 12:57 | 42.35669 | -7.75487 | 15566 ft | 366 kts | 282° |
| 2026-04-15 12:57 | 42.36295 | -7.78815 | 14963 ft | 364 kts | 282° |
| 2026-04-15 12:58 | 42.36918 | -7.82124 | 14373 ft | 362 kts | 282° |
| 2026-04-15 12:58 | 42.37538 | -7.85412 | 13751 ft | 360 kts | 283° |
| 2026-04-15 12:58 | 42.38153 | -7.88683 | 13096 ft | 357 kts | 282° |
| 2026-04-15 12:58 | 42.38762 | -7.91933 | 12490 ft | 355 kts | 282° |
| 2026-04-15 12:59 | 42.39942 | -7.98264 | 11565 ft | 342 kts | 282° |
| 2026-04-15 12:59 | 42.40517 | -8.01354 | 11084 ft | 336 kts | 282° |
| 2026-04-15 12:59 | 42.41083 | -8.04400 | 10604 ft | 331 kts | 282° |
| 2026-04-15 13:00 | 42.41640 | -8.07403 | 10128 ft | 327 kts | 282° |
| 2026-04-15 13:00 | 42.42191 | -8.10367 | 9603 ft | 323 kts | 282° |
| 2026-04-15 13:00 | 42.42734 | -8.13292 | 9086 ft | 319 kts | 282° |
| 2026-04-15 13:00 | 42.43266 | -8.16174 | 8710 ft | 311 kts | 282° |
| 2026-04-15 13:01 | 42.43779 | -8.18961 | 8452 ft | 300 kts | 282° |
| 2026-04-15 13:01 | 42.44273 | -8.21653 | 8199 ft | 290 kts | 282° |
| 2026-04-15 13:01 | 42.44752 | -8.24259 | 7952 ft | 281 kts | 282° |
| 2026-04-15 13:01 | 42.45217 | -8.26787 | 7707 ft | 273 kts | 282° |
| 2026-04-15 13:02 | 42.45668 | -8.29245 | 7462 ft | 265 kts | 282° |
| 2026-04-15 13:02 | 42.46107 | -8.31648 | 7218 ft | 261 kts | 282° |
| 2026-04-15 13:02 | 42.46530 | -8.33961 | 6989 ft | 253 kts | 282° |
| 2026-04-15 13:02 | 42.46943 | -8.36223 | 6807 ft | 243 kts | 282° |
| 2026-04-15 13:03 | 42.47340 | -8.38398 | 6628 ft | 232 kts | 282° |
| 2026-04-15 13:03 | 42.47723 | -8.40500 | 6372 ft | 227 kts | 282° |
| 2026-04-15 13:03 | 42.48095 | -8.42550 | 6107 ft | 221 kts | 282° |
| 2026-04-15 13:03 | 42.48456 | -8.44549 | 5861 ft | 216 kts | 281° |
| 2026-04-15 13:04 | 42.48812 | -8.46510 | 5608 ft | 213 kts | 281° |
| 2026-04-15 13:04 | 42.49164 | -8.48446 | 5352 ft | 211 kts | 281° |
| 2026-04-15 13:04 | 42.49461 | -8.50380 | 5105 ft | 208 kts | 272° |
| 2026-04-15 13:04 | 42.49335 | -8.52291 | 4941 ft | 203 kts | 253° |
| 2026-04-15 13:05 | 42.48752 | -8.54029 | 4818 ft | 204 kts | 235° |
| 2026-04-15 13:05 | 42.47775 | -8.55413 | 4747 ft | 205 kts | 218° |
| 2026-04-15 13:05 | 42.46512 | -8.56281 | 4671 ft | 202 kts | 199° |
| 2026-04-15 13:05 | 42.45167 | -8.56673 | 4592 ft | 194 kts | 194° |
| 2026-04-15 13:06 | 42.43864 | -8.57030 | 4511 ft | 189 kts | 195° |
| 2026-04-15 13:06 | 42.42579 | -8.57383 | 4454 ft | 189 kts | 195° |
| 2026-04-15 13:06 | 42.41290 | -8.57737 | 4273 ft | 189 kts | 194° |
| 2026-04-15 13:06 | 42.39998 | -8.58090 | 4041 ft | 190 kts | 194° |
| 2026-04-15 13:07 | 42.38709 | -8.58443 | 3827 ft | 188 kts | 193° |
| 2026-04-15 13:07 | 42.37429 | -8.58793 | 3549 ft | 187 kts | 193° |
| 2026-04-15 13:07 | 42.36146 | -8.59140 | 3254 ft | 188 kts | 192° |
| 2026-04-15 13:07 | 42.34868 | -8.59484 | 2995 ft | 186 kts | 193° |
| 2026-04-15 13:08 | 42.33642 | -8.59823 | 2717 ft | 174 kts | 192° |
| 2026-04-15 13:08 | 42.32508 | -8.60131 | 2498 ft | 160 kts | 193° |
| 2026-04-15 13:08 | 42.31459 | -8.60417 | 2310 ft | 148 kts | 193° |
| 2026-04-15 13:08 | 42.30495 | -8.60688 | 2181 ft | 139 kts | 192° |
| 2026-04-15 13:09 | 42.29568 | -8.60946 | 1982 ft | 132 kts | 193° |
| 2026-04-15 13:09 | 42.28670 | -8.61188 | 1756 ft | 131 kts | 191° |
| 2026-04-15 13:09 | 42.27762 | -8.61433 | 1595 ft | 136 kts | 192° |
| 2026-04-15 13:09 | 42.26821 | -8.61711 | 1432 ft | 141 kts | 192° |
| 2026-04-15 13:10 | 42.25848 | -8.61982 | 1209 ft | 144 kts | 190° |
| 2026-04-15 13:10 | 42.24869 | -8.62233 | 1017 ft | 141 kts | 189° |
| 2026-04-15 13:10 | 42.23917 | -8.62478 | 840 ft | 131 kts | 191° |
| 2026-04-15 13:10 | 42.23255 | -8.62660 | 840 ft | 61 kts | 191° |
| 2026-04-15 13:11 | 42.22890 | -8.62792 | 843 ft | 49 kts | 207° |
| 2026-04-15 13:11 | 42.22690 | -8.62997 | 839 ft | 9 kts | 219° |
| 2026-04-15 13:11 | 42.22682 | -8.63006 | 839 ft | 2 kts | 219° |
| 2026-04-15 13:11 | 42.22651 | -8.63039 | 839 ft | 6 kts | 213° |
| 2026-04-15 13:12 | 42.22618 | -8.63051 | 843 ft | 6 kts | 188° |
| 2026-04-15 13:12 | 42.22550 | -8.63068 | 837 ft | 14 kts | 192° |
| 2026-04-15 13:12 | 42.22499 | -8.63103 | 836 ft | 5 kts | 296° |
| 2026-04-15 13:12 | 42.22507 | -8.63156 | 841 ft | 5 kts | 281° |
| 2026-04-15 13:13 | 42.22511 | -8.63184 | 843 ft | 0 kts | 282° |